sensor_id;sensor_type;location;lat;lon;timestamp;pressure;altitude;pressure_sealevel;temperature;humidity
69842;BME280;57138;51.326;-0.068;2022-12-29T00:01:14;97807.91;;;7.82;100.00
69842;BME280;57138;51.326;-0.068;2022-12-29T00:03:40;97805.25;;;7.82;100.00
69842;BME280;57138;51.326;-0.068;2022-12-29T00:06:05;97794.94;;;7.74;99.70
69842;BME280;57138;51.326;-0.068;2022-12-29T00:08:31;97801.53;;;7.83;100.00
69842;BME280;57138;51.326;-0.068;2022-12-29T00:11:27;97797.84;;;7.84;99.94
69842;BME280;57138;51.326;-0.068;2022-12-29T00:13:53;97786.03;;;7.80;99.68
69842;BME280;57138;51.326;-0.068;2022-12-29T00:16:40;97782.34;;;7.81;99.74
69842;BME280;57138;51.326;-0.068;2022-12-29T00:19:05;97783.59;;;7.79;99.46
69842;BME280;57138;51.326;-0.068;2022-12-29T00:21:31;97774.72;;;7.73;100.00
69842;BME280;57138;51.326;-0.068;2022-12-29T00:24:20;97766.34;;;7.69;99.78
69842;BME280;57138;51.326;-0.068;2022-12-29T00:26:58;97761.28;;;7.68;99.50
69842;BME280;57138;51.326;-0.068;2022-12-29T00:29:48;97766.03;;;7.66;99.51
69842;BME280;57138;51.326;-0.068;2022-12-29T00:32:33;97763.34;;;7.66;100.00
69842;BME280;57138;51.326;-0.068;2022-12-29T00:35:39;97759.91;;;7.65;100.00
69842;BME280;57138;51.326;-0.068;2022-12-29T00:38:09;97762.34;;;7.67;100.00
69842;BME280;57138;51.326;-0.068;2022-12-29T00:40:54;97755.59;;;7.64;100.00
69842;BME280;57138;51.326;-0.068;2022-12-29T00:43:38;97760.59;;;7.61;100.00
69842;BME280;57138;51.326;-0.068;2022-12-29T00:46:21;97750.41;;;7.58;99.52
69842;BME280;57138;51.326;-0.068;2022-12-29T00:48:47;97756.75;;;7.56;98.52
69842;BME280;57138;51.326;-0.068;2022-12-29T00:51:31;97745.56;;;7.54;98.12
69842;BME280;57138;51.326;-0.068;2022-12-29T00:53:56;97749.25;;;7.53;99.21
69842;BME280;57138;51.326;-0.068;2022-12-29T00:56:22;97755.47;;;7.47;98.82
69842;BME280;57138;51.326;-0.068;2022-12-29T00:58:47;97752.81;;;7.47;96.62
69842;BME280;57138;51.326;-0.068;2022-12-29T01:01:12;97769.78;;;7.46;94.65
69842;BME280;57138;51.326;-0.068;2022-12-29T01:03:38;97769.78;;;7.46;95.59
69842;BME280;57138;51.326;-0.068;2022-12-29T01:06:05;97762.03;;;7.45;94.96
69842;BME280;57138;51.326;-0.068;2022-12-29T01:08:32;97767.59;;;7.43;95.39
69842;BME280;57138;51.326;-0.068;2022-12-29T01:11:04;97758.47;;;7.39;94.53
69842;BME280;57138;51.326;-0.068;2022-12-29T01:13:29;97761.00;;;7.34;94.48
69842;BME280;57138;51.326;-0.068;2022-12-29T01:15:55;97775.34;;;7.33;94.73
69842;BME280;57138;51.326;-0.068;2022-12-29T01:18:21;97788.84;;;7.31;93.53
69842;BME280;57138;51.326;-0.068;2022-12-29T01:20:47;97783.19;;;7.28;94.11
69842;BME280;57138;51.326;-0.068;2022-12-29T01:23:13;97766.63;;;7.26;94.18
69842;BME280;57138;51.326;-0.068;2022-12-29T01:25:38;97758.66;;;7.26;94.00
69842;BME280;57138;51.326;-0.068;2022-12-29T01:28:04;97755.88;;;7.20;94.07
69842;BME280;57138;51.326;-0.068;2022-12-29T01:30:30;97773.00;;;7.25;94.92
69842;BME280;57138;51.326;-0.068;2022-12-29T01:32:55;97769.28;;;7.26;94.94
69842;BME280;57138;51.326;-0.068;2022-12-29T01:35:21;97754.97;;;7.27;95.69
69842;BME280;57138;51.326;-0.068;2022-12-29T01:37:46;97757.50;;;7.22;95.46
69842;BME280;57138;51.326;-0.068;2022-12-29T01:40:12;97768.16;;;7.22;96.61
69842;BME280;57138;51.326;-0.068;2022-12-29T01:42:37;97763.28;;;7.18;96.80
69842;BME280;57138;51.326;-0.068;2022-12-29T01:45:12;97769.50;;;7.12;96.92
69842;BME280;57138;51.326;-0.068;2022-12-29T01:48:04;97768.78;;;7.05;96.09
69842;BME280;57138;51.326;-0.068;2022-12-29T01:50:37;97760.69;;;7.00;96.59
69842;BME280;57138;51.326;-0.068;2022-12-29T01:53:11;97764.72;;;7.02;94.97
69842;BME280;57138;51.326;-0.068;2022-12-29T01:55:44;97766.00;;;7.00;95.25
69842;BME280;57138;51.326;-0.068;2022-12-29T01:58:13;97757.28;;;6.93;94.77
69842;BME280;57138;51.326;-0.068;2022-12-29T02:00:40;97757.06;;;6.94;94.63
69842;BME280;57138;51.326;-0.068;2022-12-29T02:03:06;97754.63;;;6.93;95.22
69842;BME280;57138;51.326;-0.068;2022-12-29T02:05:38;97766.50;;;6.90;95.07
69842;BME280;57138;51.326;-0.068;2022-12-29T02:08:05;97771.81;;;6.90;94.63
69842;BME280;57138;51.326;-0.068;2022-12-29T02:10:32;97784.75;;;6.87;94.56
69842;BME280;57138;51.326;-0.068;2022-12-29T02:12:59;97771.25;;;6.88;94.28
69842;BME280;57138;51.326;-0.068;2022-12-29T02:18:22;97760.41;;;6.90;94.74
69842;BME280;57138;51.326;-0.068;2022-12-29T02:26:21;97747.25;;;6.95;93.29
69842;BME280;57138;51.326;-0.068;2022-12-29T02:31:41;97760.31;;;6.96;93.43
69842;BME280;57138;51.326;-0.068;2022-12-29T02:34:24;97755.38;;;7.00;92.41
69842;BME280;57138;51.326;-0.068;2022-12-29T02:45:04;97752.25;;;7.03;93.72
69842;BME280;57138;51.326;-0.068;2022-12-29T02:50:17;97744.53;;;7.13;93.34
69842;BME280;57138;51.326;-0.068;2022-12-29T02:52:56;97731.84;;;7.15;92.62
69842;BME280;57138;51.326;-0.068;2022-12-29T02:55:22;97738.75;;;7.16;92.55
69842;BME280;57138;51.326;-0.068;2022-12-29T02:57:48;97736.25;;;7.22;92.13
69842;BME280;57138;51.326;-0.068;2022-12-29T03:00:16;97726.44;;;7.22;91.78
69842;BME280;57138;51.326;-0.068;2022-12-29T03:10:48;97736.25;;;7.22;91.92
69842;BME280;57138;51.326;-0.068;2022-12-29T03:16:23;97754.25;;;7.19;91.83
69842;BME280;57138;51.326;-0.068;2022-12-29T03:19:07;97778.78;;;7.22;90.65
69842;BME280;57138;51.326;-0.068;2022-12-29T03:21:47;97773.34;;;7.28;92.10
69842;BME280;57138;51.326;-0.068;2022-12-29T03:24:47;97785.97;;;7.33;91.76
69842;BME280;57138;51.326;-0.068;2022-12-29T03:27:17;97781.81;;;7.37;92.20
69842;BME280;57138;51.326;-0.068;2022-12-29T03:29:50;97797.28;;;7.40;91.87
69842;BME280;57138;51.326;-0.068;2022-12-29T03:32:26;97782.16;;;7.41;91.58
69842;BME280;57138;51.326;-0.068;2022-12-29T03:34:53;97781.50;;;7.45;91.74
69842;BME280;57138;51.326;-0.068;2022-12-29T03:37:26;97791.06;;;7.46;91.18
69842;BME280;57138;51.326;-0.068;2022-12-29T03:39:54;97799.19;;;7.51;91.13
69842;BME280;57138;51.326;-0.068;2022-12-29T03:42:23;97797.91;;;7.54;91.46
69842;BME280;57138;51.326;-0.068;2022-12-29T03:44:53;97796.66;;;7.56;90.37
69842;BME280;57138;51.326;-0.068;2022-12-29T03:47:20;97792.13;;;7.57;90.86
69842;BME280;57138;51.326;-0.068;2022-12-29T03:49:45;97802.06;;;7.62;90.73
69842;BME280;57138;51.326;-0.068;2022-12-29T03:52:11;97808.00;;;7.64;91.30
69842;BME280;57138;51.326;-0.068;2022-12-29T03:54:37;97812.25;;;7.65;91.12
69842;BME280;57138;51.326;-0.068;2022-12-29T03:57:02;97800.59;;;7.66;91.65
69842;BME280;57138;51.326;-0.068;2022-12-29T03:59:28;97791.81;;;7.65;90.84
69842;BME280;57138;51.326;-0.068;2022-12-29T04:01:53;97780.94;;;7.67;90.85
69842;BME280;57138;51.326;-0.068;2022-12-29T04:04:18;97772.97;;;7.67;90.46
69842;BME280;57138;51.326;-0.068;2022-12-29T04:06:44;97763.81;;;7.63;90.13
69842;BME280;57138;51.326;-0.068;2022-12-29T04:09:09;97779.09;;;7.67;90.70
69842;BME280;57138;51.326;-0.068;2022-12-29T04:11:35;97772.75;;;7.68;91.51
69842;BME280;57138;51.326;-0.068;2022-12-29T04:14:00;97782.31;;;7.69;91.90
69842;BME280;57138;51.326;-0.068;2022-12-29T04:16:26;97770.78;;;7.64;92.18
69842;BME280;57138;51.326;-0.068;2022-12-29T04:18:51;97764.28;;;7.60;92.31
69842;BME280;57138;51.326;-0.068;2022-12-29T04:21:16;97778.75;;;7.64;92.93
69842;BME280;57138;51.326;-0.068;2022-12-29T04:23:42;97780.81;;;7.62;94.09
69842;BME280;57138;51.326;-0.068;2022-12-29T04:26:08;97785.44;;;7.54;94.06
69842;BME280;57138;51.326;-0.068;2022-12-29T04:28:34;97794.00;;;7.56;94.58
69842;BME280;57138;51.326;-0.068;2022-12-29T04:30:59;97811.19;;;7.54;95.35
69842;BME280;57138;51.326;-0.068;2022-12-29T04:33:25;97807.63;;;7.48;95.95
69842;BME280;57138;51.326;-0.068;2022-12-29T04:35:51;97801.34;;;7.43;95.89
69842;BME280;57138;51.326;-0.068;2022-12-29T04:38:19;97804.59;;;7.45;96.50
69842;BME280;57138;51.326;-0.068;2022-12-29T04:40:45;97800.56;;;7.42;96.79
69842;BME280;57138;51.326;-0.068;2022-12-29T04:43:11;97801.00;;;7.39;97.08
69842;BME280;57138;51.326;-0.068;2022-12-29T04:45:36;97799.72;;;7.42;97.28
69842;BME280;57138;51.326;-0.068;2022-12-29T04:48:02;97807.13;;;7.40;97.67
69842;BME280;57138;51.326;-0.068;2022-12-29T04:50:28;97790.59;;;7.37;97.62
69842;BME280;57138;51.326;-0.068;2022-12-29T04:52:53;97796.94;;;7.36;97.63
69842;BME280;57138;51.326;-0.068;2022-12-29T04:55:19;97804.47;;;7.40;98.05
69842;BME280;57138;51.326;-0.068;2022-12-29T04:57:44;97808.97;;;7.39;97.62
69842;BME280;57138;51.326;-0.068;2022-12-29T05:00:10;97799.38;;;7.38;98.11
69842;BME280;57138;51.326;-0.068;2022-12-29T05:02:37;97813.63;;;7.44;98.45
69842;BME280;57138;51.326;-0.068;2022-12-29T05:05:04;97818.47;;;7.47;98.42
69842;BME280;57138;51.326;-0.068;2022-12-29T05:07:29;97823.81;;;7.47;98.37
69842;BME280;57138;51.326;-0.068;2022-12-29T05:09:55;97824.59;;;7.47;98.74
69842;BME280;57138;51.326;-0.068;2022-12-29T05:12:20;97829.91;;;7.47;99.39
69842;BME280;57138;51.326;-0.068;2022-12-29T05:14:46;97825.84;;;7.45;99.21
69842;BME280;57138;51.326;-0.068;2022-12-29T05:17:11;97832.00;;;7.45;99.56
69842;BME280;57138;51.326;-0.068;2022-12-29T05:19:37;97845.88;;;7.47;99.66
69842;BME280;57138;51.326;-0.068;2022-12-29T05:22:03;97856.50;;;7.47;99.67
69842;BME280;57138;51.326;-0.068;2022-12-29T05:24:29;97861.03;;;7.47;99.71
69842;BME280;57138;51.326;-0.068;2022-12-29T05:26:54;97860.19;;;7.46;99.93
69842;BME280;57138;51.326;-0.068;2022-12-29T05:29:20;97856.97;;;7.44;99.92
69842;BME280;57138;51.326;-0.068;2022-12-29T05:31:45;97865.97;;;7.43;100.00
69842;BME280;57138;51.326;-0.068;2022-12-29T05:34:11;97867.59;;;7.44;100.00
69842;BME280;57138;51.326;-0.068;2022-12-29T05:36:36;97878.22;;;7.44;100.00
69842;BME280;57138;51.326;-0.068;2022-12-29T05:39:02;97885.19;;;7.45;100.00
69842;BME280;57138;51.326;-0.068;2022-12-29T05:41:28;97893.72;;;7.47;100.00
69842;BME280;57138;51.326;-0.068;2022-12-29T05:43:53;97893.72;;;7.47;100.00
69842;BME280;57138;51.326;-0.068;2022-12-29T05:46:19;97909.09;;;7.45;100.00
69842;BME280;57138;51.326;-0.068;2022-12-29T05:48:44;97923.56;;;7.49;100.00
69842;BME280;57138;51.326;-0.068;2022-12-29T05:51:09;97929.69;;;7.50;100.00
69842;BME280;57138;51.326;-0.068;2022-12-29T05:53:35;97942.16;;;7.49;100.00
69842;BME280;57138;51.326;-0.068;2022-12-29T05:56:00;97943.22;;;7.48;100.00
69842;BME280;57138;51.326;-0.068;2022-12-29T05:58:25;97950.59;;;7.46;99.87
69842;BME280;57138;51.326;-0.068;2022-12-29T06:00:51;97964.09;;;7.45;99.73
69842;BME280;57138;51.326;-0.068;2022-12-29T06:03:16;97976.59;;;7.44;99.62
69842;BME280;57138;51.326;-0.068;2022-12-29T06:05:44;97982.94;;;7.43;100.00
69842;BME280;57138;51.326;-0.068;2022-12-29T06:08:10;97989.91;;;7.44;99.94
69842;BME280;57138;51.326;-0.068;2022-12-29T06:10:36;97998.91;;;7.43;100.00
69842;BME280;57138;51.326;-0.068;2022-12-29T06:13:01;97990.22;;;7.36;99.77
69842;BME280;57138;51.326;-0.068;2022-12-29T06:15:28;98001.56;;;7.43;99.84
69842;BME280;57138;51.326;-0.068;2022-12-29T06:17:54;98013.81;;;7.44;100.00
69842;BME280;57138;51.326;-0.068;2022-12-29T06:20:19;98032.44;;;7.44;99.46
69842;BME280;57138;51.326;-0.068;2022-12-29T06:22:45;98019.59;;;7.41;98.62
69842;BME280;57138;51.326;-0.068;2022-12-29T06:25:11;98017.38;;;7.38;97.88
69842;BME280;57138;51.326;-0.068;2022-12-29T06:27:37;98029.28;;;7.35;97.59
69842;BME280;57138;51.326;-0.068;2022-12-29T06:30:03;98042.41;;;7.30;97.53
69842;BME280;57138;51.326;-0.068;2022-12-29T06:32:28;98037.16;;;7.24;96.84
69842;BME280;57138;51.326;-0.068;2022-12-29T06:34:54;98026.59;;;7.17;97.07
69842;BME280;57138;51.326;-0.068;2022-12-29T06:37:19;98034.63;;;7.10;96.61
69842;BME280;57138;51.326;-0.068;2022-12-29T06:39:45;98045.91;;;7.06;96.82
69842;BME280;57138;51.326;-0.068;2022-12-29T06:42:10;98053.53;;;7.02;96.58
69842;BME280;57138;51.326;-0.068;2022-12-29T06:44:35;98059.69;;;6.96;96.16
69842;BME280;57138;51.326;-0.068;2022-12-29T06:47:01;98066.47;;;6.92;96.17
69842;BME280;57138;51.326;-0.068;2022-12-29T06:49:26;98075.94;;;6.88;96.15
69842;BME280;57138;51.326;-0.068;2022-12-29T06:51:52;98080.88;;;6.84;95.82
69842;BME280;57138;51.326;-0.068;2022-12-29T06:54:17;98089.50;;;6.79;95.67
69842;BME280;57138;51.326;-0.068;2022-12-29T06:56:42;98114.41;;;6.78;96.01
69842;BME280;57138;51.326;-0.068;2022-12-29T06:59:09;98106.28;;;6.73;95.36
69842;BME280;57138;51.326;-0.068;2022-12-29T07:01:34;98101.00;;;6.66;95.56
69842;BME280;57138;51.326;-0.068;2022-12-29T07:04:02;98101.41;;;6.70;95.46
69842;BME280;57138;51.326;-0.068;2022-12-29T07:06:27;98106.09;;;6.68;95.26
69842;BME280;57138;51.326;-0.068;2022-12-29T07:08:53;98116.13;;;6.66;95.00
69842;BME280;57138;51.326;-0.068;2022-12-29T07:11:21;98121.88;;;6.63;95.12
69842;BME280;57138;51.326;-0.068;2022-12-29T07:13:46;98120.22;;;6.62;95.30
69842;BME280;57138;51.326;-0.068;2022-12-29T07:16:12;98116.22;;;6.53;94.86
69842;BME280;57138;51.326;-0.068;2022-12-29T07:18:37;98134.97;;;6.58;95.34
69842;BME280;57138;51.326;-0.068;2022-12-29T07:21:03;98120.28;;;6.55;95.01
69842;BME280;57138;51.326;-0.068;2022-12-29T07:23:29;98127.44;;;6.55;95.02
69842;BME280;57138;51.326;-0.068;2022-12-29T07:26:05;98125.22;;;6.52;95.08
69842;BME280;57138;51.326;-0.068;2022-12-29T07:28:31;98132.56;;;6.50;94.70
69842;BME280;57138;51.326;-0.068;2022-12-29T07:30:58;98135.84;;;6.45;94.93
69842;BME280;57138;51.326;-0.068;2022-12-29T07:33:23;98142.41;;;6.42;94.43
69842;BME280;57138;51.326;-0.068;2022-12-29T07:35:49;98152.63;;;6.45;94.81
69842;BME280;57138;51.326;-0.068;2022-12-29T07:38:14;98147.72;;;6.42;94.66
69842;BME280;57138;51.326;-0.068;2022-12-29T07:40:40;98156.72;;;6.41;94.32
69842;BME280;57138;51.326;-0.068;2022-12-29T07:43:05;98163.88;;;6.41;94.28
69842;BME280;57138;51.326;-0.068;2022-12-29T07:45:30;98169.81;;;6.36;94.16
69842;BME280;57138;51.326;-0.068;2022-12-29T07:47:56;98178.38;;;6.38;94.21
69842;BME280;57138;51.326;-0.068;2022-12-29T07:50:21;98180.44;;;6.36;94.01
69842;BME280;57138;51.326;-0.068;2022-12-29T07:52:47;98192.22;;;6.40;94.36
69842;BME280;57138;51.326;-0.068;2022-12-29T07:55:13;98190.63;;;6.39;94.40
69842;BME280;57138;51.326;-0.068;2022-12-29T07:57:39;98199.59;;;6.38;94.04
69842;BME280;57138;51.326;-0.068;2022-12-29T08:00:05;98201.66;;;6.36;94.69
69842;BME280;57138;51.326;-0.068;2022-12-29T08:02:30;98201.25;;;6.33;94.36
69842;BME280;57138;51.326;-0.068;2022-12-29T08:04:56;98206.56;;;6.33;94.86
69842;BME280;57138;51.326;-0.068;2022-12-29T08:07:21;98216.16;;;6.34;94.97
69842;BME280;57138;51.326;-0.068;2022-12-29T08:09:47;98227.59;;;6.34;94.92
69842;BME280;57138;51.326;-0.068;2022-12-29T08:12:12;98222.91;;;6.36;95.13
69842;BME280;57138;51.326;-0.068;2022-12-29T08:14:38;98232.69;;;6.36;95.43
69842;BME280;57138;51.326;-0.068;2022-12-29T08:17:03;98221.09;;;6.30;95.43
69842;BME280;57138;51.326;-0.068;2022-12-29T08:19:29;98237.19;;;6.35;94.79
69842;BME280;57138;51.326;-0.068;2022-12-29T08:21:54;98242.91;;;6.32;94.86
69842;BME280;57138;51.326;-0.068;2022-12-29T08:24:19;98239.06;;;6.28;95.18
69842;BME280;57138;51.326;-0.068;2022-12-29T08:26:45;98247.84;;;6.28;95.07
69842;BME280;57138;51.326;-0.068;2022-12-29T08:29:10;98248.47;;;6.24;95.58
69842;BME280;57138;51.326;-0.068;2022-12-29T08:31:36;98245.81;;;6.24;95.43
69842;BME280;57138;51.326;-0.068;2022-12-29T08:34:04;98240.50;;;6.24;95.52
69842;BME280;57138;51.326;-0.068;2022-12-29T08:36:31;98255.00;;;6.21;95.66
69842;BME280;57138;51.326;-0.068;2022-12-29T08:38:56;98253.78;;;6.24;95.50
69842;BME280;57138;51.326;-0.068;2022-12-29T08:41:22;98251.53;;;6.21;95.71
69842;BME280;57138;51.326;-0.068;2022-12-29T08:43:48;98269.09;;;6.22;95.63
69842;BME280;57138;51.326;-0.068;2022-12-29T08:46:14;98265.00;;;6.19;95.91
69842;BME280;57138;51.326;-0.068;2022-12-29T08:48:40;98269.91;;;6.22;95.69
69842;BME280;57138;51.326;-0.068;2022-12-29T08:51:06;98284.19;;;6.21;95.89
69842;BME280;57138;51.326;-0.068;2022-12-29T08:53:31;98282.97;;;6.24;95.75
69842;BME280;57138;51.326;-0.068;2022-12-29T08:55:59;98283.34;;;6.27;96.47
69842;BME280;57138;51.326;-0.068;2022-12-29T08:58:25;98283.78;;;6.31;96.08
69842;BME280;57138;51.326;-0.068;2022-12-29T09:00:53;98274.78;;;6.25;95.95
69842;BME280;57138;51.326;-0.068;2022-12-29T09:03:21;98282.53;;;6.34;96.44
69842;BME280;57138;51.326;-0.068;2022-12-29T09:05:51;98284.97;;;6.35;95.71
69842;BME280;57138;51.326;-0.068;2022-12-29T09:08:17;98286.59;;;6.36;96.11
69842;BME280;57138;51.326;-0.068;2022-12-29T09:10:44;98298.00;;;6.43;96.33
69842;BME280;57138;51.326;-0.068;2022-12-29T09:13:10;98298.41;;;6.47;95.84
69842;BME280;57138;51.326;-0.068;2022-12-29T09:15:36;98296.78;;;6.46;95.55
69842;BME280;57138;51.326;-0.068;2022-12-29T09:18:01;98291.47;;;6.46;95.89
69842;BME280;57138;51.326;-0.068;2022-12-29T09:20:27;98296.78;;;6.46;95.84
69842;BME280;57138;51.326;-0.068;2022-12-29T09:22:52;98300.88;;;6.48;95.68
69842;BME280;57138;51.326;-0.068;2022-12-29T09:25:19;98304.53;;;6.47;95.84
69842;BME280;57138;51.326;-0.068;2022-12-29T09:27:45;98316.78;;;6.48;95.26
69842;BME280;57138;51.326;-0.068;2022-12-29T09:30:11;98320.25;;;6.49;95.37
69842;BME280;57138;51.326;-0.068;2022-12-29T09:32:37;98309.84;;;6.47;95.27
69842;BME280;57138;51.326;-0.068;2022-12-29T09:35:04;98308.19;;;6.46;95.26
69842;BME280;57138;51.326;-0.068;2022-12-29T09:37:29;98302.88;;;6.46;95.80
69842;BME280;57138;51.326;-0.068;2022-12-29T09:39:55;98319.44;;;6.48;95.57
69842;BME280;57138;51.326;-0.068;2022-12-29T09:42:29;98327.81;;;6.45;95.79
69842;BME280;57138;51.326;-0.068;2022-12-29T09:47:30;98340.47;;;6.50;95.58
69842;BME280;57138;51.326;-0.068;2022-12-29T09:50:02;98351.09;;;6.50;95.43
69842;BME280;57138;51.326;-0.068;2022-12-29T09:52:37;98354.34;;;6.52;96.03
69842;BME280;57138;51.326;-0.068;2022-12-29T09:55:12;98365.78;;;6.53;95.19
69842;BME280;57138;51.326;-0.068;2022-12-29T09:57:43;98370.66;;;6.56;95.60
69842;BME280;57138;51.326;-0.068;2022-12-29T10:00:17;98373.13;;;6.57;95.53
69842;BME280;57138;51.326;-0.068;2022-12-29T10:02:58;98386.19;;;6.59;95.09
69842;BME280;57138;51.326;-0.068;2022-12-29T10:05:39;98394.78;;;6.61;94.48
69842;BME280;57138;51.326;-0.068;2022-12-29T10:08:22;98393.31;;;6.65;94.94
69842;BME280;57138;51.326;-0.068;2022-12-29T10:10:56;98399.88;;;6.69;94.29
69842;BME280;57138;51.326;-0.068;2022-12-29T10:13:36;98409.66;;;6.75;94.84
69842;BME280;57138;51.326;-0.068;2022-12-29T10:24:07;98405.34;;;6.88;93.46
69842;BME280;57138;51.326;-0.068;2022-12-29T10:26:40;98419.00;;;6.91;93.72
69842;BME280;57138;51.326;-0.068;2022-12-29T10:29:33;98421.03;;;6.96;93.67
69842;BME280;57138;51.326;-0.068;2022-12-29T10:32:21;98430.66;;;6.97;93.70
69842;BME280;57138;51.326;-0.068;2022-12-29T10:34:51;98434.13;;;6.97;92.68
69842;BME280;57138;51.326;-0.068;2022-12-29T10:37:43;98433.50;;;7.02;92.81
69842;BME280;57138;51.326;-0.068;2022-12-29T10:40:16;98444.50;;;7.06;92.67
69842;BME280;57138;51.326;-0.068;2022-12-29T10:42:46;98453.50;;;7.11;92.45
69842;BME280;57138;51.326;-0.068;2022-12-29T10:45:16;98454.50;;;7.10;92.37
69842;BME280;57138;51.326;-0.068;2022-12-29T10:47:57;98456.34;;;7.16;92.22
69842;BME280;57138;51.326;-0.068;2022-12-29T10:50:25;98459.63;;;7.18;92.32
69842;BME280;57138;51.326;-0.068;2022-12-29T10:52:52;98461.84;;;7.22;92.11
69842;BME280;57138;51.326;-0.068;2022-12-29T10:55:22;98460.00;;;7.22;91.49
69842;BME280;57138;51.326;-0.068;2022-12-29T10:57:50;98461.22;;;7.19;90.42
69842;BME280;57138;51.326;-0.068;2022-12-29T11:00:21;98471.44;;;7.23;90.83
69842;BME280;57138;51.326;-0.068;2022-12-29T11:08:21;98475.34;;;7.20;89.35
69842;BME280;57138;51.326;-0.068;2022-12-29T11:11:04;98465.13;;;7.17;88.21
69842;BME280;57138;51.326;-0.068;2022-12-29T11:13:33;98469.84;;;7.15;88.79
69842;BME280;57138;51.326;-0.068;2022-12-29T11:15:59;98465.78;;;7.12;89.15
69842;BME280;57138;51.326;-0.068;2022-12-29T11:18:31;98477.81;;;7.15;88.79
69842;BME280;57138;51.326;-0.068;2022-12-29T11:21:00;98473.31;;;7.15;89.06
69842;BME280;57138;51.326;-0.068;2022-12-29T11:23:37;98474.75;;;7.11;88.79
69842;BME280;57138;51.326;-0.068;2022-12-29T11:28:33;98482.31;;;7.14;88.00
69842;BME280;57138;51.326;-0.068;2022-12-29T11:31:00;98486.63;;;7.15;88.08
69842;BME280;57138;51.326;-0.068;2022-12-29T11:33:31;98494.78;;;7.20;88.12
69842;BME280;57138;51.326;-0.068;2022-12-29T11:36:17;98494.78;;;7.20;87.38
69842;BME280;57138;51.326;-0.068;2022-12-29T11:38:48;98491.91;;;7.22;87.38
69842;BME280;57138;51.326;-0.068;2022-12-29T11:41:21;98503.97;;;7.25;87.44
69842;BME280;57138;51.326;-0.068;2022-12-29T11:43:47;98504.97;;;7.24;86.85
69842;BME280;57138;51.326;-0.068;2022-12-29T11:46:18;98506.81;;;7.30;87.47
69842;BME280;57138;51.326;-0.068;2022-12-29T11:48:46;98503.31;;;7.36;86.81
69842;BME280;57138;51.326;-0.068;2022-12-29T11:51:13;98503.69;;;7.40;87.15
69842;BME280;57138;51.326;-0.068;2022-12-29T11:53:50;98505.72;;;7.44;86.20
69842;BME280;57138;51.326;-0.068;2022-12-29T11:56:19;98502.06;;;7.45;85.50
69842;BME280;57138;51.326;-0.068;2022-12-29T11:58:49;98511.03;;;7.44;85.23
69842;BME280;57138;51.326;-0.068;2022-12-29T12:01:39;98511.03;;;7.44;85.41
69842;BME280;57138;51.326;-0.068;2022-12-29T12:04:09;98508.59;;;7.43;84.73
69842;BME280;57138;51.326;-0.068;2022-12-29T12:06:43;98515.56;;;7.44;83.29
69842;BME280;57138;51.326;-0.068;2022-12-29T12:09:21;98506.56;;;7.38;83.91
69842;BME280;57138;51.326;-0.068;2022-12-29T12:11:52;98507.19;;;7.33;84.10
69842;BME280;57138;51.326;-0.068;2022-12-29T12:14:26;98515.59;;;7.37;84.46
69842;BME280;57138;51.326;-0.068;2022-12-29T12:16:59;98508.25;;;7.26;84.24
69842;BME280;57138;51.326;-0.068;2022-12-29T12:19:42;98522.13;;;7.34;83.56
69842;BME280;57138;51.326;-0.068;2022-12-29T12:22:21;98520.50;;;7.33;84.66
69842;BME280;57138;51.326;-0.068;2022-12-29T12:24:55;98522.72;;;7.36;84.83
69842;BME280;57138;51.326;-0.068;2022-12-29T12:27:26;98516.00;;;7.34;84.72
69842;BME280;57138;51.326;-0.068;2022-12-29T12:30:24;98525.78;;;7.40;84.84
69842;BME280;57138;51.326;-0.068;2022-12-29T12:41:10;98535.19;;;7.43;83.50
69842;BME280;57138;51.326;-0.068;2022-12-29T12:43:41;98535.41;;;7.41;83.77
69842;BME280;57138;51.326;-0.068;2022-12-29T13:00:18;98519.69;;;7.33;82.29
69842;BME280;57138;51.326;-0.068;2022-12-29T13:05:36;98512.28;;;7.42;82.32
69842;BME280;57138;51.326;-0.068;2022-12-29T13:08:33;98507.56;;;7.50;81.57
69842;BME280;57138;51.326;-0.068;2022-12-29T13:14:04;98509.41;;;7.50;81.11
69842;BME280;57138;51.326;-0.068;2022-12-29T13:19:34;98508.97;;;7.53;81.35
69842;BME280;57138;51.326;-0.068;2022-12-29T13:25:08;98513.84;;;7.63;80.49
69842;BME280;57138;51.326;-0.068;2022-12-29T13:28:20;98519.53;;;7.73;81.16
69842;BME280;57138;51.326;-0.068;2022-12-29T13:36:26;98531.78;;;7.74;79.63
69842;BME280;57138;51.326;-0.068;2022-12-29T13:39:02;98534.28;;;7.69;77.60
69842;BME280;57138;51.326;-0.068;2022-12-29T13:41:38;98541.66;;;7.67;78.69
69842;BME280;57138;51.326;-0.068;2022-12-29T13:44:05;98536.75;;;7.64;77.91
69842;BME280;57138;51.326;-0.068;2022-12-29T13:46:38;98538.19;;;7.60;78.81
69842;BME280;57138;51.326;-0.068;2022-12-29T13:49:10;98537.81;;;7.56;78.54
69842;BME280;57138;51.326;-0.068;2022-12-29T13:51:43;98538.03;;;7.54;78.82
69842;BME280;57138;51.326;-0.068;2022-12-29T13:54:45;98531.06;;;7.53;78.60
69842;BME280;57138;51.326;-0.068;2022-12-29T13:59:58;98536.56;;;7.59;78.86
69842;BME280;57138;51.326;-0.068;2022-12-29T14:05:30;98544.13;;;7.62;77.41
69842;BME280;57138;51.326;-0.068;2022-12-29T14:08:03;98534.53;;;7.61;77.03
69842;BME280;57138;51.326;-0.068;2022-12-29T14:10:36;98543.09;;;7.63;77.79
69842;BME280;57138;51.326;-0.068;2022-12-29T14:13:12;98563.38;;;7.64;78.15
69842;BME280;57138;51.326;-0.068;2022-12-29T14:15:42;98561.13;;;7.61;77.10
69842;BME280;57138;51.326;-0.068;2022-12-29T14:18:18;98558.88;;;7.58;77.23
69842;BME280;57138;51.326;-0.068;2022-12-29T14:20:54;98552.53;;;7.59;77.87
69842;BME280;57138;51.326;-0.068;2022-12-29T14:29:15;98552.31;;;7.60;77.74
69842;BME280;57138;51.326;-0.068;2022-12-29T14:31:41;98562.94;;;7.60;78.00
69842;BME280;57138;51.326;-0.068;2022-12-29T14:36:55;98570.78;;;7.48;76.84
69842;BME280;57138;51.326;-0.068;2022-12-29T14:39:41;98561.78;;;7.43;76.85
69842;BME280;57138;51.326;-0.068;2022-12-29T14:47:40;98576.94;;;7.29;76.70
69842;BME280;57138;51.326;-0.068;2022-12-29T14:50:24;98580.66;;;7.28;76.68
69842;BME280;57138;51.326;-0.068;2022-12-29T14:52:55;98574.69;;;7.26;77.07
69842;BME280;57138;51.326;-0.068;2022-12-29T14:57:59;98567.16;;;7.16;77.44
69842;BME280;57138;51.326;-0.068;2022-12-29T15:00:35;98581.25;;;7.16;77.00
69842;BME280;57138;51.326;-0.068;2022-12-29T15:03:17;98584.31;;;7.13;76.96
69842;BME280;57138;51.326;-0.068;2022-12-29T15:05:49;98584.53;;;7.05;77.06
69842;BME280;57138;51.326;-0.068;2022-12-29T15:08:19;98596.19;;;7.04;76.83